Heat Index [SAI AWOS/ASOS Display]_________FAA Disclaimer: "Not for use in aviation at this time______________" Untitled Document
Potsdam Municipal/ Damon Field (PTD)
180
22:08
17/05/28
06
N/A
N/A
29.81
1800
47403/26
76(F), 24(C)
56(F), 13(C)
78 F
50%
BKN100
10
N/A
N/A
N/A
22:08 Zulu Wind 180 at 06 Knots, Altimeter 29.81
METAR KPTD 282208Z AUTO 18006KT 10SM BKN100 24/13 A2981 A02
METAR:
FAA Disclaimer--Advisory Use ONLY, not for flight info-- 1/17/2017: Current fuel prices are $4.34 per gallon for 100LL, and $3.55 per gallon for Jet A. AWOS phone 315-265-6106 updated 09/18/2014
INFO:
Wind Direction:
Wind Speed:
Wind Gust:
Wind Variable:
Altimeter:
Dens Alt:
Elev:
Temp:
Dwpt:
Heat Index
Rel Humidity:
Ceiling:
Visibility:
Prsnt Wea:
PCPN:
Remarks:
How to read the WebPage